Time,TemperatureF,DewpointF,PressureIn,WindDirection,WindDirectionDegrees,WindSpeedMPH,WindSpeedGustMPH,Humidity,HourlyPrecipIn,Conditions,Clouds,dailyrainin,SoftwareType,DateUTC
2013-01-24 00:00:00,27.4,22.4,30.07,SSE,160,0.0,1.0,81,0.00,,CLR,0.00,VWS V14.01,2013-01-24 05:00:00,
2013-01-24 00:01:00,27.4,22.4,30.07,SSE,158,0.0,1.0,81,0.00,,CLR,0.00,VWS V14.01,2013-01-24 05:01:00,
2013-01-24 00:02:00,27.4,22.4,30.07,SSE,159,1.0,2.0,81,0.00,,CLR,0.00,VWS V14.01,2013-01-24 05:02:00,
2013-01-24 00:07:00,27.4,22.4,30.07,SSE,165,2.0,2.0,81,0.00,,CLR,0.00,VWS V14.01,2013-01-24 05:07:00,
2013-01-24 00:12:00,27.6,22.2,30.06,SSE,160,1.0,2.0,80,0.00,,CLR,0.00,VWS V14.01,2013-01-24 05:12:00,
2013-01-24 00:17:00,27.7,22.6,30.06,NW,318,3.0,4.0,81,0.00,,CLR,0.00,VWS V14.01,2013-01-24 05:17:00,
2013-01-24 00:22:00,27.8,22.4,30.06,SE,136,0.0,2.0,80,0.00,,CLR,0.00,VWS V14.01,2013-01-24 05:22:00,
2013-01-24 00:27:00,28.1,22.7,30.05,SSE,165,2.0,2.0,80,0.00,,CLR,0.00,VWS V14.01,2013-01-24 05:27:00,
2013-01-24 00:32:00,28.1,22.7,30.05,SSE,160,1.0,2.0,80,0.00,,CLR,0.00,VWS V14.01,2013-01-24 05:32:00,
2013-01-24 00:37:00,27.9,22.2,30.05,NNE,13,0.0,1.0,79,0.00,,CLR,0.00,VWS V14.01,2013-01-24 05:37:00,
2013-01-24 00:42:00,28.1,22.7,30.04,SSE,165,0.0,1.0,80,0.00,,CLR,0.00,VWS V14.01,2013-01-24 05:42:00,
2013-01-24 00:47:00,28.3,22.9,30.03,NNW,337,0.0,0.0,80,0.00,,CLR,0.00,VWS V14.01,2013-01-24 05:47:00,
2013-01-24 00:52:00,29.5,23.2,30.03,NE,36,0.0,0.0,77,0.00,,CLR,0.00,VWS V14.01,2013-01-24 05:52:00,
2013-01-24 00:57:00,29.4,23.1,30.03,SSE,167,0.0,1.0,77,0.00,,CLR,0.00,VWS V14.01,2013-01-24 05:57:00,
2013-01-24 01:02:00,29.6,23.3,30.02,North,352,0.0,1.0,77,0.00,,CLR,0.00,VWS V14.01,2013-01-24 06:02:00,
2013-01-24 01:07:00,29.1,22.8,30.02,North,5,0.0,0.0,77,0.00,,CLR,0.00,VWS V14.01,2013-01-24 06:07:00,
2013-01-24 01:12:00,29.7,23.4,30.02,NE,41,1.0,1.0,77,0.00,,CLR,0.00,VWS V14.01,2013-01-24 06:12:00,
2013-01-24 01:17:00,30.0,23.4,30.02,NNE,33,0.0,2.0,76,0.00,,CLR,0.00,VWS V14.01,2013-01-24 06:17:00,
2013-01-24 01:22:00,30.1,23.5,30.02,NNE,32,0.0,3.0,76,0.00,,CLR,0.00,VWS V14.01,2013-01-24 06:22:00,
2013-01-24 01:27:00,30.2,23.6,30.02,North,9,0.0,1.0,76,0.00,,CLR,0.00,VWS V14.01,2013-01-24 06:27:00,
2013-01-24 01:32:00,31.0,24.0,30.02,NNW,330,1.0,2.0,75,0.00,,CLR,0.00,VWS V14.01,2013-01-24 06:32:00,
2013-01-24 01:37:00,32.3,24.6,30.01,NW,325,0.0,1.0,73,0.00,,CLR,0.00,VWS V14.01,2013-01-24 06:37:00,
2013-01-24 01:42:00,33.0,24.6,30.01,NNE,18,2.0,3.0,71,0.00,,CLR,0.00,VWS V14.01,2013-01-24 06:42:00,
2013-01-24 01:47:00,32.7,24.7,30.01,NE,36,0.0,3.0,72,0.00,,CLR,0.00,VWS V14.01,2013-01-24 06:47:00,
2013-01-24 01:52:00,32.8,24.8,30.01,NNE,18,0.0,1.0,72,0.00,,CLR,0.00,VWS V14.01,2013-01-24 06:52:00,
2013-01-24 01:57:00,33.2,25.2,30.01,NNE,30,0.0,2.0,72,0.00,,CLR,0.00,VWS V14.01,2013-01-24 06:57:00,
2013-01-24 02:02:00,34.4,26.0,30.01,NNW,336,1.0,2.0,71,0.00,,CLR,0.00,VWS V14.01,2013-01-24 07:02:00,
2013-01-24 02:07:00,34.5,25.4,30.01,North,353,2.0,3.0,69,0.00,,CLR,0.00,VWS V14.01,2013-01-24 07:07:00,
2013-01-24 02:12:00,35.2,25.7,30.01,North,354,1.0,2.0,68,0.00,,CLR,0.00,VWS V14.01,2013-01-24 07:12:00,
2013-01-24 02:17:00,35.1,25.3,30.01,ENE,67,3.0,3.0,67,0.00,,CLR,0.00,VWS V14.01,2013-01-24 07:17:00,
2013-01-24 02:22:00,34.9,25.8,30.01,NE,47,0.0,1.0,69,0.00,,CLR,0.00,VWS V14.01,2013-01-24 07:22:00,
2013-01-24 02:27:00,34.9,25.8,30.01,NE,39,0.0,1.0,69,0.00,,CLR,0.00,VWS V14.01,2013-01-24 07:27:00,
2013-01-24 02:32:00,34.9,25.8,30.01,NNE,27,0.0,2.0,69,0.00,,CLR,0.00,VWS V14.01,2013-01-24 07:32:00,
2013-01-24 02:37:00,35.2,25.7,30.00,ENE,62,1.0,1.0,68,0.00,,CLR,0.00,VWS V14.01,2013-01-24 07:37:00,
2013-01-24 02:42:00,35.1,26.0,30.00,ENE,62,0.0,1.0,69,0.00,,CLR,0.00,VWS V14.01,2013-01-24 07:42:00,
2013-01-24 02:47:00,35.4,26.3,30.00,NNW,333,0.0,1.0,69,0.00,,CLR,0.00,VWS V14.01,2013-01-24 07:47:00,
2013-01-24 02:52:00,35.4,26.3,30.00,NNW,343,0.0,1.0,69,0.00,,CLR,0.00,VWS V14.01,2013-01-24 07:52:00,
2013-01-24 02:57:00,35.8,26.6,30.00,NW,318,1.0,1.0,69,0.00,,CLR,0.00,VWS V14.01,2013-01-24 07:57:00,
2013-01-24 03:02:00,36.6,27.4,30.00,NW,307,3.0,3.0,69,0.00,,CLR,0.00,VWS V14.01,2013-01-24 08:02:00,
2013-01-24 03:08:00,37.8,27.5,29.99,NNE,32,1.0,1.0,66,0.00,,CLR,0.00,VWS V14.01,2013-01-24 08:08:00,
2013-01-24 03:13:00,38.3,28.3,29.99,NNE,32,0.0,1.0,67,0.00,,CLR,0.00,VWS V14.01,2013-01-24 08:13:00,
2013-01-24 03:18:00,39.0,28.6,29.99,NNE,13,6.0,6.0,66,0.00,,CLR,0.00,VWS V14.01,2013-01-24 08:18:00,
2013-01-24 03:23:00,40.2,28.6,29.99,NW,319,1.0,4.0,63,0.00,,CLR,0.00,VWS V14.01,2013-01-24 08:23:00,
2013-01-24 03:28:00,40.8,28.8,29.99,NW,311,0.0,0.0,62,0.00,,CLR,0.00,VWS V14.01,2013-01-24 08:28:00,
2013-01-24 03:33:00,41.3,28.9,29.99,North,355,2.0,4.0,61,0.00,,CLR,0.00,VWS V14.01,2013-01-24 08:33:00,
2013-01-24 03:38:00,40.6,27.8,30.00,NNE,19,0.0,2.0,60,0.00,,CLR,0.00,VWS V14.01,2013-01-24 08:38:00,
2013-01-24 03:43:00,38.6,27.1,30.00,NE,44,1.0,1.0,63,0.00,,CLR,0.00,VWS V14.01,2013-01-24 08:43:00,
2013-01-24 03:48:00,37.8,27.5,29.99,WNW,295,0.0,1.0,66,0.00,,CLR,0.00,VWS V14.01,2013-01-24 08:48:00,
2013-01-24 03:53:00,38.1,27.8,29.99,NE,46,0.0,1.0,66,0.00,,CLR,0.00,VWS V14.01,2013-01-24 08:53:00,
2013-01-24 03:58:00,38.8,28.4,30.00,WSW,239,0.0,1.0,66,0.00,,CLR,0.00,VWS V14.01,2013-01-24 08:58:00,
2013-01-24 04:03:00,38.9,28.1,30.00,NW,310,0.0,2.0,65,0.00,,CLR,0.00,VWS V14.01,2013-01-24 09:03:00,
2013-01-24 04:08:00,39.1,28.7,30.00,North,4,1.0,4.0,66,0.00,,CLR,0.00,VWS V14.01,2013-01-24 09:08:00,
2013-01-24 04:13:00,40.0,29.2,30.00,WSW,242,0.0,2.0,65,0.00,,CLR,0.00,VWS V14.01,2013-01-24 09:13:00,
2013-01-24 04:18:00,40.3,29.5,30.00,WNW,296,3.0,5.0,65,0.00,,CLR,0.00,VWS V14.01,2013-01-24 09:18:00,
2013-01-24 04:23:00,41.9,29.5,30.00,WNW,300,3.0,10.0,61,0.00,,CLR,0.00,VWS V14.01,2013-01-24 09:23:00,
2013-01-24 04:28:00,43.2,29.9,30.00,NNW,340,4.0,8.0,59,0.00,,CLR,0.00,VWS V14.01,2013-01-24 09:28:00,
2013-01-24 04:33:00,44.0,29.8,30.00,NW,321,4.0,9.0,57,0.00,,CLR,0.00,VWS V14.01,2013-01-24 09:33:00,
2013-01-24 04:38:00,44.5,29.8,30.00,WNW,294,8.0,14.0,56,0.00,,CLR,0.00,VWS V14.01,2013-01-24 09:38:00,
2013-01-24 04:43:00,45.1,29.9,30.00,NW,307,2.0,8.0,55,0.00,,CLR,0.00,VWS V14.01,2013-01-24 09:43:00,
2013-01-24 04:48:00,44.9,30.2,30.00,NW,322,5.0,5.0,56,0.00,,CLR,0.00,VWS V14.01,2013-01-24 09:48:00,
2013-01-24 04:53:00,44.9,29.7,30.00,NW,322,2.0,9.0,55,0.00,,CLR,0.00,VWS V14.01,2013-01-24 09:53:00,
2013-01-24 04:58:00,44.9,29.7,30.00,WNW,301,1.0,6.0,55,0.00,,CLR,0.00,VWS V14.01,2013-01-24 09:58:00,
2013-01-24 05:03:00,44.7,29.1,30.01,NW,305,6.0,8.0,54,0.00,,CLR,0.00,VWS V14.01,2013-01-24 10:03:00,
2013-01-24 05:08:00,44.8,29.2,30.01,NW,317,0.0,6.0,54,0.00,,CLR,0.00,VWS V14.01,2013-01-24 10:08:00,
2013-01-24 05:13:00,44.8,29.2,30.01,NW,318,6.0,6.0,54,0.00,,CLR,0.00,VWS V14.01,2013-01-24 10:13:00,
2013-01-24 05:18:00,44.7,28.6,30.01,WNW,293,3.0,10.0,53,0.00,,CLR,0.00,VWS V14.01,2013-01-24 10:18:00,
2013-01-24 05:23:00,44.6,29.0,30.01,WNW,289,0.0,1.0,54,0.00,,CLR,0.00,VWS V14.01,2013-01-24 10:23:00,
2013-01-24 05:28:00,44.2,28.6,30.01,West,263,5.0,8.0,54,0.00,,CLR,0.00,VWS V14.01,2013-01-24 10:28:00,
2013-01-24 05:33:00,44.2,28.2,30.02,WNW,283,3.0,13.0,53,0.00,,CLR,0.00,VWS V14.01,2013-01-24 10:33:00,
2013-01-24 05:38:00,44.3,28.3,30.02,NW,322,5.0,5.0,53,0.00,,CLR,0.00,VWS V14.01,2013-01-24 10:38:00,
2013-01-24 05:43:00,44.0,28.4,30.02,NNW,347,1.0,7.0,54,0.00,,CLR,0.00,VWS V14.01,2013-01-24 10:43:00,
2013-01-24 05:48:00,43.8,27.8,30.02,North,9,1.0,7.0,53,0.00,,CLR,0.00,VWS V14.01,2013-01-24 10:48:00,
2013-01-24 05:53:00,43.7,27.2,30.02,WNW,300,3.0,4.0,52,0.00,,CLR,0.00,VWS V14.01,2013-01-24 10:53:00,
2013-01-24 05:58:00,43.6,27.1,30.03,WSW,250,2.0,8.0,52,0.00,,CLR,0.00,VWS V14.01,2013-01-24 10:58:00,
2013-01-24 06:03:00,43.8,26.9,30.02,North,9,3.0,11.0,51,0.00,,CLR,0.00,VWS V14.01,2013-01-24 11:03:00,
2013-01-24 06:08:00,43.7,26.8,30.03,NW,307,3.0,8.0,51,0.00,,CLR,0.00,VWS V14.01,2013-01-24 11:08:00,
2013-01-24 06:13:00,43.6,26.2,30.03,NW,319,4.0,11.0,50,0.00,,CLR,0.00,VWS V14.01,2013-01-24 11:13:00,
2013-01-24 06:18:00,43.7,26.3,30.03,WNW,294,9.0,11.0,50,0.00,,CLR,0.00,VWS V14.01,2013-01-24 11:18:00,
2013-01-24 06:23:00,43.6,26.2,30.04,NNE,19,2.0,6.0,50,0.00,,CLR,0.00,VWS V14.01,2013-01-24 11:23:00,
2013-01-24 06:28:00,43.2,26.3,30.05,NW,316,0.0,3.0,51,0.00,,CLR,0.00,VWS V14.01,2013-01-24 11:28:00,
2013-01-24 06:34:00,42.9,26.0,30.04,NW,308,7.0,10.0,51,0.00,,CLR,0.00,VWS V14.01,2013-01-24 11:34:00,
2013-01-24 06:39:00,42.9,25.6,30.05,NW,325,12.0,12.0,50,0.00,,CLR,0.00,VWS V14.01,2013-01-24 11:39:00,
2013-01-24 06:44:00,42.9,25.6,30.05,WNW,291,2.0,4.0,50,0.00,,CLR,0.00,VWS V14.01,2013-01-24 11:44:00,
2013-01-24 06:49:00,42.6,25.3,30.06,NW,316,3.0,4.0,50,0.00,,CLR,0.00,VWS V14.01,2013-01-24 11:49:00,
2013-01-24 06:54:00,42.5,25.2,30.07,NW,318,1.0,2.0,50,0.00,,CLR,0.00,VWS V14.01,2013-01-24 11:54:00,
2013-01-24 06:59:00,42.0,24.7,30.07,SW,228,1.0,5.0,50,0.00,,CLR,0.00,VWS V14.01,2013-01-24 11:59:00,
2013-01-24 07:04:00,41.9,24.6,30.07,WNW,293,3.0,5.0,50,0.00,,CLR,0.00,VWS V14.01,2013-01-24 12:04:00,
2013-01-24 07:09:00,41.7,24.0,30.07,NW,318,6.0,10.0,49,0.00,,CLR,0.00,VWS V14.01,2013-01-24 12:09:00,
2013-01-24 07:14:00,41.4,23.7,30.08,NNW,330,6.0,12.0,49,0.00,,CLR,0.00,VWS V14.01,2013-01-24 12:14:00,
2013-01-24 07:19:00,41.2,23.5,30.08,ESE,118,2.0,11.0,49,0.00,,CLR,0.00,VWS V14.01,2013-01-24 12:19:00,
2013-01-24 07:24:00,40.9,23.2,30.08,WSW,239,3.0,3.0,49,0.00,,CLR,0.00,VWS V14.01,2013-01-24 12:24:00,
2013-01-24 07:29:00,40.7,23.0,30.09,WSW,246,0.0,7.0,49,0.00,,CLR,0.00,VWS V14.01,2013-01-24 12:29:00,
2013-01-24 07:34:00,40.3,23.1,30.09,WNW,297,0.0,2.0,50,0.00,,CLR,0.00,VWS V14.01,2013-01-24 12:34:00,
2013-01-24 07:39:00,39.9,23.3,30.10,NW,311,4.0,5.0,51,0.00,,CLR,0.00,VWS V14.01,2013-01-24 12:39:00,
2013-01-24 07:44:00,39.5,22.4,30.10,NW,317,2.0,2.0,50,0.00,,CLR,0.00,VWS V14.01,2013-01-24 12:44:00,
2013-01-24 07:49:00,39.2,22.6,30.10,NW,308,0.0,2.0,51,0.00,,CLR,0.00,VWS V14.01,2013-01-24 12:49:00,
2013-01-24 07:54:00,39.1,22.0,30.11,North,5,0.0,3.0,50,0.00,,CLR,0.00,VWS V14.01,2013-01-24 12:54:00,
2013-01-24 07:59:00,39.2,21.7,30.11,WNW,292,0.0,5.0,49,0.00,,CLR,0.00,VWS V14.01,2013-01-24 12:59:00,
2013-01-24 08:04:00,39.1,21.1,30.12,NW,323,1.0,4.0,48,0.00,,CLR,0.00,VWS V14.01,2013-01-24 13:04:00,
2013-01-24 08:09:00,39.5,20.5,30.12,NW,313,1.0,2.0,46,0.00,,CLR,0.00,VWS V14.01,2013-01-24 13:09:00,
2013-01-24 08:14:00,39.6,20.0,30.13,NNE,33,2.0,4.0,45,0.00,,CLR,0.00,VWS V14.01,2013-01-24 13:14:00,
2013-01-24 08:19:00,39.7,19.0,30.13,WNW,294,2.0,3.0,43,0.00,,CLR,0.00,VWS V14.01,2013-01-24 13:19:00,
2013-01-24 08:24:00,39.9,17.5,30.13,North,353,0.0,2.0,40,0.00,,CLR,0.00,VWS V14.01,2013-01-24 13:24:00,
2013-01-24 08:29:00,40.1,15.9,30.14,WNW,284,1.0,4.0,37,0.00,,CLR,0.00,VWS V14.01,2013-01-24 13:29:00,
2013-01-24 08:34:00,40.4,15.6,30.13,WSW,245,2.0,5.0,36,0.00,,CLR,0.00,VWS V14.01,2013-01-24 13:34:00,
2013-01-24 08:39:00,40.4,14.9,30.14,NW,311,2.0,3.0,35,0.00,,CLR,0.00,VWS V14.01,2013-01-24 13:39:00,
2013-01-24 08:44:00,40.7,14.5,30.14,NW,311,3.0,3.0,34,0.00,,CLR,0.00,VWS V14.01,2013-01-24 13:44:00,
2013-01-24 08:49:00,40.9,14.7,30.15,NNW,328,6.0,7.0,34,0.00,,CLR,0.00,VWS V14.01,2013-01-24 13:49:00,
2013-01-24 08:54:00,41.1,13.5,30.16,WNW,290,1.0,4.0,32,0.00,,CLR,0.00,VWS V14.01,2013-01-24 13:54:00,
2013-01-24 08:59:00,41.3,10.7,30.17,NW,307,9.0,9.0,28,0.00,,CLR,0.00,VWS V14.01,2013-01-24 13:59:00,
2013-01-24 09:04:00,41.3,9.9,30.17,WNW,302,4.0,10.0,27,0.00,,CLR,0.00,VWS V14.01,2013-01-24 14:04:00,
2013-01-24 09:09:00,41.4,11.5,30.17,NW,305,6.0,6.0,29,0.00,,CLR,0.00,VWS V14.01,2013-01-24 14:09:00,
2013-01-24 09:14:00,41.5,12.4,30.18,NW,316,3.0,5.0,30,0.00,,CLR,0.00,VWS V14.01,2013-01-24 14:14:00,
2013-01-24 09:19:00,41.5,12.4,30.17,NNW,340,1.0,5.0,30,0.00,,CLR,0.00,VWS V14.01,2013-01-24 14:19:00,
2013-01-24 09:24:00,41.5,12.4,30.18,NNW,340,2.0,6.0,30,0.00,,CLR,0.00,VWS V14.01,2013-01-24 14:24:00,
2013-01-24 09:29:00,41.2,13.6,30.18,WNW,302,6.0,7.0,32,0.00,,CLR,0.00,VWS V14.01,2013-01-24 14:29:00,
2013-01-24 09:34:00,40.6,13.1,30.19,WNW,287,11.0,13.0,32,0.00,,CLR,0.00,VWS V14.01,2013-01-24 14:34:00,
2013-01-24 09:39:00,40.4,12.9,30.20,WNW,289,7.0,8.0,32,0.00,,CLR,0.00,VWS V14.01,2013-01-24 14:39:00,
2013-01-24 09:44:00,40.2,12.0,30.20,WNW,294,7.0,13.0,31,0.00,,CLR,0.00,VWS V14.01,2013-01-24 14:44:00,
2013-01-24 09:49:00,40.1,11.9,30.20,WNW,290,11.0,16.0,31,0.00,,CLR,0.00,VWS V14.01,2013-01-24 14:49:00,
2013-01-24 09:54:00,40.1,12.6,30.20,NW,305,1.0,5.0,32,0.00,,CLR,0.00,VWS V14.01,2013-01-24 14:54:00,
2013-01-24 09:59:00,40.3,11.4,30.21,NW,305,5.0,11.0,30,0.00,,CLR,0.00,VWS V14.01,2013-01-24 14:59:00,
2013-01-24 10:04:00,40.4,12.2,30.22,WNW,295,2.0,5.0,31,0.00,,CLR,0.00,VWS V14.01,2013-01-24 15:04:00,
2013-01-24 10:09:00,40.7,11.7,30.22,WNW,295,5.0,11.0,30,0.00,,CLR,0.00,VWS V14.01,2013-01-24 15:09:00,
2013-01-24 10:14:00,41.4,12.3,30.22,WNW,294,2.0,2.0,30,0.00,,CLR,0.00,VWS V14.01,2013-01-24 15:14:00,
2013-01-24 10:19:00,41.8,11.1,30.23,NW,313,6.0,8.0,28,0.00,,CLR,0.00,VWS V14.01,2013-01-24 15:19:00,
2013-01-24 10:24:00,41.4,11.5,30.24,NW,307,6.0,11.0,29,0.00,,CLR,0.00,VWS V14.01,2013-01-24 15:24:00,
2013-01-24 10:29:00,41.2,12.9,30.25,WNW,282,3.0,8.0,31,0.00,,CLR,0.00,VWS V14.01,2013-01-24 15:29:00,
2013-01-24 10:34:00,41.3,11.5,30.24,WNW,287,1.0,12.0,29,0.00,,CLR,0.00,VWS V14.01,2013-01-24 15:34:00,
2013-01-24 10:39:00,41.1,11.3,30.25,WNW,294,7.0,10.0,29,0.00,,CLR,0.00,VWS V14.01,2013-01-24 15:39:00,
2013-01-24 10:44:00,41.5,13.1,30.25,NE,41,5.0,6.0,31,0.00,,CLR,0.00,VWS V14.01,2013-01-24 15:44:00,
2013-01-24 10:49:00,41.4,11.5,30.25,NNW,338,4.0,8.0,29,0.00,,CLR,0.00,VWS V14.01,2013-01-24 15:49:00,
2013-01-24 10:54:00,41.5,12.4,30.25,WNW,291,9.0,10.0,30,0.00,,CLR,0.00,VWS V14.01,2013-01-24 15:54:00,
2013-01-24 10:59:00,41.4,12.3,30.26,NW,316,4.0,6.0,30,0.00,,CLR,0.00,VWS V14.01,2013-01-24 15:59:00,
2013-01-24 11:04:00,41.1,11.3,30.26,NW,311,3.0,8.0,29,0.00,,CLR,0.00,VWS V14.01,2013-01-24 16:04:00,
2013-01-24 11:09:00,41.8,12.7,30.26,WNW,297,7.0,10.0,30,0.00,,CLR,0.00,VWS V14.01,2013-01-24 16:09:00,
2013-01-24 11:14:00,42.2,14.5,30.26,NE,50,5.0,5.0,32,0.00,,CLR,0.00,VWS V14.01,2013-01-24 16:14:00,
2013-01-24 11:19:00,42.5,13.3,30.27,WNW,300,5.0,9.0,30,0.00,,CLR,0.00,VWS V14.01,2013-01-24 16:19:00,
2013-01-24 11:24:00,42.6,14.1,30.27,NNW,330,4.0,5.0,31,0.00,,CLR,0.00,VWS V14.01,2013-01-24 16:24:00,
2013-01-24 11:29:00,42.6,14.8,30.27,West,277,3.0,4.0,32,0.00,,CLR,0.00,VWS V14.01,2013-01-24 16:29:00,
2013-01-24 11:34:00,42.4,13.9,30.27,NW,324,5.0,8.0,31,0.00,,CLR,0.00,VWS V14.01,2013-01-24 16:34:00,
2013-01-24 11:39:00,42.1,15.1,30.28,North,357,4.0,5.0,33,0.00,,CLR,0.00,VWS V14.01,2013-01-24 16:39:00,
2013-01-24 11:44:00,41.9,14.9,30.28,NE,38,3.0,7.0,33,0.00,,CLR,0.00,VWS V14.01,2013-01-24 16:44:00,
2013-01-24 11:49:00,42.5,15.4,30.29,NNW,346,3.0,6.0,33,0.00,,CLR,0.00,VWS V14.01,2013-01-24 16:49:00,
2013-01-24 11:54:00,42.0,14.3,30.29,NE,38,6.0,8.0,32,0.00,,CLR,0.00,VWS V14.01,2013-01-24 16:54:00,
2013-01-24 11:59:00,42.2,15.2,30.29,North,4,2.0,3.0,33,0.00,,CLR,0.00,VWS V14.01,2013-01-24 16:59:00,
2013-01-24 12:04:00,42.3,11.5,30.29,WNW,302,6.0,9.0,28,0.00,,CLR,0.00,VWS V14.01,2013-01-24 17:04:00,
2013-01-24 12:09:00,42.2,11.4,30.29,NW,307,8.0,14.0,28,0.00,,CLR,0.00,VWS V14.01,2013-01-24 17:09:00,
2013-01-24 12:14:00,42.3,13.1,30.30,NNW,338,5.0,6.0,30,0.00,,CLR,0.00,VWS V14.01,2013-01-24 17:14:00,
2013-01-24 12:19:00,41.7,14.0,30.30,NE,36,5.0,13.0,32,0.00,,CLR,0.00,VWS V14.01,2013-01-24 17:19:00,
2013-01-24 12:24:00,41.7,12.6,30.30,North,8,6.0,10.0,30,0.00,,CLR,0.00,VWS V14.01,2013-01-24 17:24:00,
2013-01-24 12:29:00,41.9,12.7,30.29,NNW,345,5.0,5.0,30,0.00,,CLR,0.00,VWS V14.01,2013-01-24 17:29:00,
2013-01-24 12:34:00,41.5,11.6,30.29,NW,313,2.0,7.0,29,0.00,,CLR,0.00,VWS V14.01,2013-01-24 17:34:00,
2013-01-24 12:39:00,41.5,13.1,30.29,NNW,340,6.0,9.0,31,0.00,,CLR,0.00,VWS V14.01,2013-01-24 17:39:00,
2013-01-24 12:44:00,41.7,11.8,30.30,NNW,340,5.0,7.0,29,0.00,,CLR,0.00,VWS V14.01,2013-01-24 17:44:00,
2013-01-24 12:49:00,41.0,11.2,30.30,North,1,5.0,6.0,29,0.00,,CLR,0.00,VWS V14.01,2013-01-24 17:49:00,
2013-01-24 12:54:00,41.0,9.6,30.30,NNW,339,8.0,9.0,27,0.00,,CLR,0.00,VWS V14.01,2013-01-24 17:54:00,
2013-01-24 12:59:00,41.2,9.8,30.30,NW,314,4.0,6.0,27,0.00,,CLR,0.00,VWS V14.01,2013-01-24 17:59:00,
2013-01-24 13:04:00,41.3,9.0,30.30,NW,322,3.0,5.0,26,0.00,,CLR,0.00,VWS V14.01,2013-01-24 18:04:00,
2013-01-24 13:09:00,41.1,9.7,30.30,NNW,343,7.0,10.0,27,0.00,,CLR,0.00,VWS V14.01,2013-01-24 18:09:00,
2013-01-24 13:14:00,41.1,8.8,30.30,NW,315,5.0,5.0,26,0.00,,CLR,0.00,VWS V14.01,2013-01-24 18:14:00,
2013-01-24 13:19:00,41.1,8.8,30.30,WNW,301,5.0,9.0,26,0.00,,CLR,0.00,VWS V14.01,2013-01-24 18:19:00,
2013-01-24 13:24:00,41.2,8.1,30.31,NW,316,5.0,11.0,25,0.00,,CLR,0.00,VWS V14.01,2013-01-24 18:24:00,
2013-01-24 13:29:00,40.7,8.5,30.31,North,6,7.0,9.0,26,0.00,,CLR,0.00,VWS V14.01,2013-01-24 18:29:00,
2013-01-24 13:34:00,40.7,7.6,30.31,North,11,4.0,6.0,25,0.00,,CLR,0.00,VWS V14.01,2013-01-24 18:34:00,
2013-01-24 13:39:00,40.6,5.7,30.31,NNW,331,2.0,7.0,23,0.00,,CLR,0.00,VWS V14.01,2013-01-24 18:39:00,
2013-01-24 13:44:00,40.5,6.6,30.31,NNE,12,4.0,6.0,24,0.00,,CLR,0.00,VWS V14.01,2013-01-24 18:44:00,
2013-01-24 13:49:00,40.4,5.5,30.32,NNE,18,6.0,9.0,23,0.00,,CLR,0.00,VWS V14.01,2013-01-24 18:49:00,
2013-01-24 13:54:00,40.4,6.5,30.31,NNW,328,4.0,7.0,24,0.00,,CLR,0.00,VWS V14.01,2013-01-24 18:54:00,
2013-01-24 13:59:00,40.7,5.8,30.31,North,356,5.0,13.0,23,0.00,,CLR,0.00,VWS V14.01,2013-01-24 18:59:00,
2013-01-24 14:04:00,40.7,6.7,30.31,North,349,2.0,8.0,24,0.00,,CLR,0.00,VWS V14.01,2013-01-24 19:04:00,
2013-01-24 14:09:00,40.6,4.7,30.31,North,7,6.0,7.0,22,0.00,,CLR,0.00,VWS V14.01,2013-01-24 19:09:00,
2013-01-24 14:14:00,40.4,4.6,30.31,NE,45,3.0,3.0,22,0.00,,CLR,0.00,VWS V14.01,2013-01-24 19:14:00,
2013-01-24 14:19:00,40.5,5.6,30.32,NE,41,6.0,14.0,23,0.00,,CLR,0.00,VWS V14.01,2013-01-24 19:19:00,
2013-01-24 14:24:00,40.8,5.9,30.32,North,11,9.0,10.0,23,0.00,,CLR,0.00,VWS V14.01,2013-01-24 19:24:00,
2013-01-24 14:29:00,40.6,4.7,30.32,NW,321,4.0,10.0,22,0.00,,CLR,0.00,VWS V14.01,2013-01-24 19:29:00,
2013-01-24 14:34:00,40.4,4.6,30.33,NNE,25,3.0,7.0,22,0.00,,CLR,0.00,VWS V14.01,2013-01-24 19:34:00,
2013-01-24 14:39:00,40.4,4.6,30.33,NNW,327,4.0,9.0,22,0.00,,CLR,0.00,VWS V14.01,2013-01-24 19:39:00,
2013-01-24 14:44:00,40.1,3.3,30.33,NW,305,5.0,7.0,21,0.00,,CLR,0.00,VWS V14.01,2013-01-24 19:44:00,
2013-01-24 14:49:00,40.3,3.5,30.33,NNE,14,5.0,7.0,21,0.00,,CLR,0.00,VWS V14.01,2013-01-24 19:49:00,
2013-01-24 14:54:00,40.5,3.7,30.33,North,359,2.0,7.0,21,0.00,,CLR,0.00,VWS V14.01,2013-01-24 19:54:00,
2013-01-24 14:59:00,40.4,4.6,30.33,North,357,4.0,8.0,22,0.00,,CLR,0.00,VWS V14.01,2013-01-24 19:59:00,
2013-01-24 15:04:00,40.4,5.5,30.34,NNE,27,6.0,9.0,23,0.00,,CLR,0.00,VWS V14.01,2013-01-24 20:04:00,
2013-01-24 15:09:00,40.0,3.2,30.34,NE,46,6.0,13.0,21,0.00,,CLR,0.00,VWS V14.01,2013-01-24 20:09:00,
2013-01-24 15:14:00,39.7,4.0,30.35,NW,326,5.0,5.0,22,0.00,,CLR,0.00,VWS V14.01,2013-01-24 20:14:00,
2013-01-24 15:19:00,39.7,3.0,30.35,NNE,32,1.0,8.0,21,0.00,,CLR,0.00,VWS V14.01,2013-01-24 20:19:00,
2013-01-24 15:24:00,39.5,3.8,30.36,NNW,338,5.0,6.0,22,0.00,,CLR,0.00,VWS V14.01,2013-01-24 20:24:00,
2013-01-24 15:29:00,39.5,2.8,30.35,NNE,20,2.0,5.0,21,0.00,,CLR,0.00,VWS V14.01,2013-01-24 20:29:00,
2013-01-24 15:34:00,39.4,3.7,30.36,NNW,333,4.0,6.0,22,0.00,,CLR,0.00,VWS V14.01,2013-01-24 20:34:00,
2013-01-24 15:39:00,39.2,2.6,30.35,North,351,5.0,10.0,21,0.00,,CLR,0.00,VWS V14.01,2013-01-24 20:39:00,
2013-01-24 15:44:00,39.1,3.5,30.35,NNW,340,4.0,5.0,22,0.00,,CLR,0.00,VWS V14.01,2013-01-24 20:44:00,
2013-01-24 15:49:00,39.2,2.6,30.35,North,9,5.0,8.0,21,0.00,,CLR,0.00,VWS V14.01,2013-01-24 20:49:00,
2013-01-24 15:54:00,39.0,2.4,30.36,North,349,5.0,8.0,21,0.00,,CLR,0.00,VWS V14.01,2013-01-24 20:54:00,
2013-01-24 15:59:00,38.9,2.3,30.37,North,353,5.0,6.0,21,0.00,,CLR,0.00,VWS V14.01,2013-01-24 20:59:00,
2013-01-24 16:04:00,39.0,2.4,30.37,NW,314,6.0,7.0,21,0.00,,CLR,0.00,VWS V14.01,2013-01-24 21:04:00,
2013-01-24 16:09:00,39.1,3.5,30.37,NNE,25,0.0,5.0,22,0.00,,CLR,0.00,VWS V14.01,2013-01-24 21:09:00,
2013-01-24 16:14:00,39.1,3.5,30.37,NNW,333,4.0,5.0,22,0.00,,CLR,0.00,VWS V14.01,2013-01-24 21:14:00,
2013-01-24 16:19:00,38.9,3.3,30.37,NNE,19,1.0,5.0,22,0.00,,CLR,0.00,VWS V14.01,2013-01-24 21:19:00,
2013-01-24 16:24:00,38.7,2.1,30.38,NNE,15,5.0,7.0,21,0.00,,CLR,0.00,VWS V14.01,2013-01-24 21:24:00,
2013-01-24 16:29:00,38.4,1.9,30.38,NNW,339,3.0,6.0,21,0.00,,CLR,0.00,VWS V14.01,2013-01-24 21:29:00,
2013-01-24 16:34:00,38.3,2.8,30.38,NW,318,1.0,2.0,22,0.00,,CLR,0.00,VWS V14.01,2013-01-24 21:34:00,
2013-01-24 16:39:00,38.3,2.8,30.38,NW,312,4.0,7.0,22,0.00,,CLR,0.00,VWS V14.01,2013-01-24 21:39:00,
2013-01-24 16:44:00,38.1,2.6,30.38,NNW,329,2.0,5.0,22,0.00,,CLR,0.00,VWS V14.01,2013-01-24 21:44:00,
2013-01-24 16:49:00,37.9,2.5,30.38,NNW,330,1.0,4.0,22,0.00,,CLR,0.00,VWS V14.01,2013-01-24 21:49:00,
2013-01-24 16:54:00,37.6,3.2,30.38,NW,305,1.0,2.0,23,0.00,,CLR,0.00,VWS V14.01,2013-01-24 21:54:00,
2013-01-24 16:59:00,37.5,2.1,30.38,NE,39,3.0,3.0,22,0.00,,CLR,0.00,VWS V14.01,2013-01-24 21:59:00,
2013-01-24 17:04:00,37.2,3.8,30.39,NW,322,6.0,6.0,24,0.00,,CLR,0.00,VWS V14.01,2013-01-24 22:04:00,
2013-01-24 17:09:00,36.9,2.6,30.39,NW,318,1.0,4.0,23,0.00,,CLR,0.00,VWS V14.01,2013-01-24 22:09:00,
2013-01-24 17:14:00,36.6,2.3,30.39,NW,317,4.0,5.0,23,0.00,,CLR,0.00,VWS V14.01,2013-01-24 22:14:00,
2013-01-24 17:19:00,36.3,3.0,30.39,NE,38,2.0,3.0,24,0.00,,CLR,0.00,VWS V14.01,2013-01-24 22:19:00,
2013-01-24 17:24:00,36.0,2.7,30.40,North,6,2.0,4.0,24,0.00,,CLR,0.00,VWS V14.01,2013-01-24 22:24:00,
2013-01-24 17:29:00,35.8,3.4,30.40,NNW,343,3.0,3.0,25,0.00,,CLR,0.00,VWS V14.01,2013-01-24 22:29:00,
2013-01-24 17:34:00,35.5,3.2,30.40,NNW,339,1.0,2.0,25,0.00,,CLR,0.00,VWS V14.01,2013-01-24 22:34:00,
2013-01-24 17:39:00,35.3,3.8,30.41,NW,315,2.0,2.0,26,0.00,,CLR,0.00,VWS V14.01,2013-01-24 22:39:00,
2013-01-24 17:44:00,35.0,4.4,30.41,NW,307,2.0,3.0,27,0.00,,CLR,0.00,VWS V14.01,2013-01-24 22:44:00,
2013-01-24 17:49:00,34.7,4.2,30.41,NNW,340,0.0,2.0,27,0.00,,CLR,0.00,VWS V14.01,2013-01-24 22:49:00,
2013-01-24 17:54:00,34.4,4.7,30.41,North,351,1.0,1.0,28,0.00,,CLR,0.00,VWS V14.01,2013-01-24 22:54:00,
2013-01-24 17:59:00,34.0,5.1,30.41,North,6,0.0,1.0,29,0.00,,CLR,0.00,VWS V14.01,2013-01-24 22:59:00,
2013-01-24 18:04:00,33.7,4.8,30.41,North,358,1.0,3.0,29,0.00,,CLR,0.00,VWS V14.01,2013-01-24 23:04:00,
2013-01-24 18:09:00,33.4,5.3,30.41,NE,38,6.0,8.0,30,0.00,,CLR,0.00,VWS V14.01,2013-01-24 23:09:00,
2013-01-24 18:14:00,33.1,4.3,30.41,North,349,2.0,6.0,29,0.00,,CLR,0.00,VWS V14.01,2013-01-24 23:14:00,
2013-01-24 18:19:00,32.7,4.0,30.42,NNW,330,1.0,6.0,29,0.00,,CLR,0.00,VWS V14.01,2013-01-24 23:19:00,
2013-01-24 18:24:00,32.4,4.4,30.42,ENE,62,4.0,6.0,30,0.00,,CLR,0.00,VWS V14.01,2013-01-24 23:24:00,
2013-01-24 18:29:00,32.1,4.2,30.42,NE,53,6.0,6.0,30,0.00,,CLR,0.00,VWS V14.01,2013-01-24 23:29:00,
2013-01-24 18:34:00,31.9,4.0,30.43,NNW,347,3.0,5.0,30,0.00,,CLR,0.00,VWS V14.01,2013-01-24 23:34:00,
2013-01-24 18:39:00,31.8,3.9,30.43,East,80,3.0,5.0,30,0.00,,CLR,0.00,VWS V14.01,2013-01-24 23:39:00,
2013-01-24 18:44:00,31.5,3.7,30.44,NNE,12,2.0,5.0,30,0.00,,CLR,0.00,VWS V14.01,2013-01-24 23:44:00,
2013-01-24 18:49:00,31.3,4.2,30.44,ENE,60,1.0,2.0,31,0.00,,CLR,0.00,VWS V14.01,2013-01-24 23:49:00,
2013-01-24 18:54:00,31.0,4.6,30.45,ENE,77,2.0,3.0,32,0.00,,CLR,0.00,VWS V14.01,2013-01-24 23:54:00,
2013-01-24 18:59:00,30.8,4.4,30.45,ENE,61,2.0,4.0,32,0.00,,CLR,0.00,VWS V14.01,2013-01-24 23:59:00,
2013-01-24 19:04:00,30.6,4.3,30.45,NNE,27,4.0,5.0,32,0.00,,CLR,0.00,VWS V14.01,2013-01-25 00:04:00,
2013-01-24 19:09:00,30.3,4.7,30.45,NE,36,6.0,9.0,33,0.00,,CLR,0.00,VWS V14.01,2013-01-25 00:09:00,
2013-01-24 19:14:00,30.1,5.1,30.45,ENE,73,2.0,8.0,34,0.00,,CLR,0.00,VWS V14.01,2013-01-25 00:14:00,
2013-01-24 19:19:00,30.0,5.1,30.46,North,351,3.0,9.0,34,0.00,,CLR,0.00,VWS V14.01,2013-01-25 00:19:00,
2013-01-24 19:24:00,29.7,4.8,30.46,NNE,15,4.0,5.0,34,0.00,,CLR,0.00,VWS V14.01,2013-01-25 00:24:00,
2013-01-24 19:29:00,29.5,4.6,30.46,NE,47,3.0,10.0,34,0.00,,CLR,0.00,VWS V14.01,2013-01-25 00:29:00,
2013-01-24 19:34:00,29.3,5.1,30.46,ENE,62,4.0,9.0,35,0.00,,CLR,0.00,VWS V14.01,2013-01-25 00:34:00,
2013-01-24 19:39:00,29.2,5.0,30.45,East,96,3.0,6.0,35,0.00,,CLR,0.00,VWS V14.01,2013-01-25 00:39:00,
2013-01-24 19:44:00,29.0,4.8,30.45,NNE,30,6.0,6.0,35,0.00,,CLR,0.00,VWS V14.01,2013-01-25 00:44:00,
2013-01-24 19:49:00,28.9,4.7,30.46,ESE,118,4.0,4.0,35,0.00,,CLR,0.00,VWS V14.01,2013-01-25 00:49:00,
2013-01-24 19:54:00,28.7,4.5,30.46,NW,313,1.0,6.0,35,0.00,,CLR,0.00,VWS V14.01,2013-01-25 00:54:00,
2013-01-24 19:59:00,28.6,5.0,30.46,ESE,115,0.0,4.0,36,0.00,,CLR,0.00,VWS V14.01,2013-01-25 00:59:00,
2013-01-24 20:04:00,28.3,4.8,30.47,East,82,4.0,4.0,36,0.00,,CLR,0.00,VWS V14.01,2013-01-25 01:04:00,
2013-01-24 20:09:00,28.3,4.8,30.47,East,79,5.0,5.0,36,0.00,,CLR,0.00,VWS V14.01,2013-01-25 01:09:00,
2013-01-24 20:14:00,28.1,4.6,30.47,SE,135,6.0,6.0,36,0.00,,CLR,0.00,VWS V14.01,2013-01-25 01:14:00,
2013-01-24 20:19:00,27.9,5.0,30.47,NE,53,3.0,4.0,37,0.00,,CLR,0.00,VWS V14.01,2013-01-25 01:19:00,
2013-01-24 20:24:00,27.8,4.9,30.47,ENE,58,4.0,7.0,37,0.00,,CLR,0.00,VWS V14.01,2013-01-25 01:24:00,
2013-01-24 20:29:00,27.7,4.8,30.47,NNE,25,3.0,5.0,37,0.00,,CLR,0.00,VWS V14.01,2013-01-25 01:29:00,
2013-01-24 20:34:00,27.5,4.7,30.47,ENE,62,2.0,2.0,37,0.00,,CLR,0.00,VWS V14.01,2013-01-25 01:34:00,
2013-01-24 20:39:00,27.4,4.6,30.47,ENE,70,1.0,3.0,37,0.00,,CLR,0.00,VWS V14.01,2013-01-25 01:39:00,
2013-01-24 20:44:00,27.3,4.5,30.48,ENE,64,2.0,3.0,37,0.00,,CLR,0.00,VWS V14.01,2013-01-25 01:44:00,
2013-01-24 20:49:00,27.3,4.5,30.48,NE,40,2.0,3.0,37,0.00,,CLR,0.00,VWS V14.01,2013-01-25 01:49:00,
2013-01-24 20:54:00,27.2,4.4,30.48,ENE,68,1.0,3.0,37,0.00,,CLR,0.00,VWS V14.01,2013-01-25 01:54:00,
2013-01-24 20:59:00,27.1,4.9,30.48,SE,137,0.0,1.0,38,0.00,,CLR,0.00,VWS V14.01,2013-01-25 01:59:00,
2013-01-24 21:04:00,27.0,4.2,30.48,SE,137,1.0,3.0,37,0.00,,CLR,0.00,VWS V14.01,2013-01-25 02:04:00,
2013-01-24 21:09:00,27.0,4.2,30.48,ENE,77,1.0,4.0,37,0.00,,CLR,0.00,VWS V14.01,2013-01-25 02:09:00,
2013-01-24 21:14:00,26.9,4.7,30.48,ESE,113,0.0,4.0,38,0.00,,CLR,0.00,VWS V14.01,2013-01-25 02:14:00,
2013-01-24 21:19:00,26.8,4.6,30.48,ENE,78,2.0,3.0,38,0.00,,CLR,0.00,VWS V14.01,2013-01-25 02:19:00,
2013-01-24 21:24:00,26.7,4.5,30.48,NE,36,7.0,9.0,38,0.00,,CLR,0.00,VWS V14.01,2013-01-25 02:24:00,
2013-01-24 21:29:00,26.8,4.6,30.48,East,79,3.0,4.0,38,0.00,,CLR,0.00,VWS V14.01,2013-01-25 02:29:00,
2013-01-24 21:34:00,26.7,3.9,30.49,ESE,103,0.0,4.0,37,0.00,,CLR,0.00,VWS V14.01,2013-01-25 02:34:00,
2013-01-24 21:39:00,26.6,4.4,30.48,SSE,155,2.0,3.0,38,0.00,,CLR,0.00,VWS V14.01,2013-01-25 02:39:00,
2013-01-24 21:44:00,26.5,4.3,30.49,SE,139,1.0,1.0,38,0.00,,CLR,0.00,VWS V14.01,2013-01-25 02:44:00,
2013-01-24 21:49:00,26.4,4.2,30.49,SE,137,0.0,3.0,38,0.00,,CLR,0.00,VWS V14.01,2013-01-25 02:49:00,
2013-01-24 21:54:00,26.2,4.6,30.49,SE,135,0.0,1.0,39,0.00,,CLR,0.00,VWS V14.01,2013-01-25 02:54:00,
2013-01-24 21:59:00,26.1,5.1,30.49,SSE,150,3.0,6.0,40,0.00,,CLR,0.00,VWS V14.01,2013-01-25 02:59:00,
2013-01-24 22:04:00,26.1,5.1,30.49,SE,136,2.0,3.0,40,0.00,,CLR,0.00,VWS V14.01,2013-01-25 03:04:00,
2013-01-24 22:09:00,26.0,5.5,30.49,East,96,2.0,2.0,41,0.00,,CLR,0.00,VWS V14.01,2013-01-25 03:09:00,
2013-01-24 22:14:00,26.0,5.0,30.49,ESE,115,1.0,2.0,40,0.00,,CLR,0.00,VWS V14.01,2013-01-25 03:14:00,
2013-01-24 22:19:00,25.9,5.4,30.50,SE,146,3.0,3.0,41,0.00,,CLR,0.00,VWS V14.01,2013-01-25 03:19:00,
2013-01-24 22:24:00,25.9,5.4,30.49,SSE,158,1.0,2.0,41,0.00,,CLR,0.00,VWS V14.01,2013-01-25 03:24:00,
2013-01-24 22:29:00,25.7,5.3,30.50,SE,135,0.0,2.0,41,0.00,,CLR,0.00,VWS V14.01,2013-01-25 03:29:00,
2013-01-24 22:34:00,25.6,5.7,30.50,SE,129,3.0,3.0,42,0.00,,CLR,0.00,VWS V14.01,2013-01-25 03:34:00,
2013-01-24 22:39:00,25.5,5.6,30.50,SE,133,1.0,1.0,42,0.00,,CLR,0.00,VWS V14.01,2013-01-25 03:39:00,
2013-01-24 22:44:00,25.4,5.5,30.51,SSE,152,2.0,3.0,42,0.00,,CLR,0.00,VWS V14.01,2013-01-25 03:44:00,
2013-01-24 22:49:00,25.3,5.4,30.51,SSE,148,1.0,2.0,42,0.00,,CLR,0.00,VWS V14.01,2013-01-25 03:49:00,
2013-01-24 22:54:00,25.2,5.3,30.51,SSE,151,2.0,3.0,42,0.00,,CLR,0.00,VWS V14.01,2013-01-25 03:54:00,
2013-01-24 22:59:00,25.0,5.2,30.51,ESE,122,2.0,3.0,42,0.00,,CLR,0.00,VWS V14.01,2013-01-25 03:59:00,
2013-01-24 23:04:00,24.9,5.6,30.51,SE,126,0.0,2.0,43,0.00,,CLR,0.00,VWS V14.01,2013-01-25 04:04:00,
2013-01-24 23:09:00,24.8,5.5,30.51,SE,133,0.0,2.0,43,0.00,,CLR,0.00,VWS V14.01,2013-01-25 04:09:00,
2013-01-24 23:14:00,24.6,5.8,30.51,ESE,111,0.0,1.0,44,0.00,,CLR,0.00,VWS V14.01,2013-01-25 04:14:00,
2013-01-24 23:19:00,24.6,5.8,30.51,SE,138,2.0,3.0,44,0.00,,CLR,0.00,VWS V14.01,2013-01-25 04:19:00,
2013-01-24 23:24:00,24.4,5.6,30.52,SE,129,1.0,1.0,44,0.00,,CLR,0.00,VWS V14.01,2013-01-25 04:24:00,
2013-01-24 23:29:00,24.3,5.5,30.52,SE,132,2.0,3.0,44,0.00,,CLR,0.00,VWS V14.01,2013-01-25 04:29:00,
2013-01-24 23:34:00,24.2,5.4,30.53,SE,128,0.0,1.0,44,0.00,,CLR,0.00,VWS V14.01,2013-01-25 04:34:00,
2013-01-24 23:39:00,24.0,5.8,30.53,SSE,149,0.0,0.0,45,0.00,,CLR,0.00,VWS V14.01,2013-01-25 04:39:00,
2013-01-24 23:44:00,23.6,5.4,30.53,SW,225,0.0,0.0,45,0.00,,CLR,0.00,VWS V14.01,2013-01-25 04:44:00,
2013-01-24 23:49:00,23.4,5.7,30.53,SE,137,0.0,1.0,46,0.00,,CLR,0.00,VWS V14.01,2013-01-25 04:49:00,
2013-01-24 23:54:00,23.3,5.1,30.52,SSE,148,0.0,1.0,45,0.00,,CLR,0.00,VWS V14.01,2013-01-25 04:54:00,
2013-01-24 23:59:00,23.2,5.0,30.52,SSE,148,0.0,0.0,45,0.00,,CLR,0.00,VWS V14.01,2013-01-25 04:59:00,